Orangeburg Municipal Airport Orangeburg US
ICAO: KOGB
IATA: OGB
Category: Medium
Scheduled Services: No

Elevation: 195 ft
TransAlt. 18000 ft.

Airport Communications:
COLUMBIA APP/DEP:124.15
ASOS:118.525
CTAF/UNICOM:122.7

KOGB Zoom In..

If Map Doesn't Load, Click Here

Runways:

(A) RW 05 length 4508 ft width 100 ft
---- / hdg 49

(B) RW 17 length 5399 ft width 100 ft
---- / hdg 174

(C) RW 23 length 4508 ft width 100 ft
---- / hdg 229

(D) RW 35 length 5399 ft width 100 ft
---- / hdg 354

Location; KOGB
Day. 26 / Time. 09.53 Zulu
* Altimeter: 30.09
* Temperature: 21° c. 69.8°f.
* Wind from: 000° Speed 00 kn.
Dewpoint: 19° c.
Visibility: 10 Statute Miles.
Clouds: Clear (automated report).

KOGB 260953Z AUTO 00000KT 10SM CLR 21/19 A3009 RMK AO2 SLP188 T02060194


Wind - Calm.

 
 
jpsmedia.com for Web Design worldairports.se 2018   terms of use